sensor_id;sensor_type;location;lat;lon;timestamp;P1;durP1;ratioP1;P2;durP2;ratioP2
27632;SDS011;15046;50.930;13.334;2023-02-15T00:01:38;32.13;;;14.73;;
27632;SDS011;15046;50.930;13.334;2023-02-15T00:04:05;30.83;;;13.90;;
27632;SDS011;15046;50.930;13.334;2023-02-15T00:06:31;28.88;;;13.25;;
27632;SDS011;15046;50.930;13.334;2023-02-15T00:08:57;31.85;;;14.20;;
27632;SDS011;15046;50.930;13.334;2023-02-15T00:11:24;32.53;;;13.43;;
27632;SDS011;15046;50.930;13.334;2023-02-15T00:14:25;29.23;;;14.43;;
27632;SDS011;15046;50.930;13.334;2023-02-15T00:16:51;33.38;;;14.00;;
27632;SDS011;15046;50.930;13.334;2023-02-15T00:19:18;28.33;;;12.55;;
27632;SDS011;15046;50.930;13.334;2023-02-15T00:21:47;29.70;;;13.48;;
27632;SDS011;15046;50.930;13.334;2023-02-15T00:24:14;26.52;;;12.70;;
27632;SDS011;15046;50.930;13.334;2023-02-15T00:26:42;24.98;;;11.80;;
27632;SDS011;15046;50.930;13.334;2023-02-15T00:29:09;28.67;;;12.45;;
27632;SDS011;15046;50.930;13.334;2023-02-15T00:31:35;27.67;;;12.80;;
27632;SDS011;15046;50.930;13.334;2023-02-15T00:34:03;26.92;;;12.07;;
27632;SDS011;15046;50.930;13.334;2023-02-15T00:36:33;27.67;;;13.40;;
27632;SDS011;15046;50.930;13.334;2023-02-15T00:38:59;24.02;;;11.90;;
27632;SDS011;15046;50.930;13.334;2023-02-15T00:41:25;25.08;;;11.32;;
27632;SDS011;15046;50.930;13.334;2023-02-15T00:43:51;22.83;;;10.93;;
27632;SDS011;15046;50.930;13.334;2023-02-15T00:46:16;24.90;;;11.57;;
27632;SDS011;15046;50.930;13.334;2023-02-15T00:48:42;28.02;;;12.10;;
27632;SDS011;15046;50.930;13.334;2023-02-15T00:51:08;27.40;;;12.10;;
27632;SDS011;15046;50.930;13.334;2023-02-15T00:53:34;29.33;;;13.02;;
27632;SDS011;15046;50.930;13.334;2023-02-15T00:56:00;25.52;;;13.55;;
27632;SDS011;15046;50.930;13.334;2023-02-15T00:58:26;26.40;;;12.80;;
27632;SDS011;15046;50.930;13.334;2023-02-15T01:00:51;25.20;;;11.98;;
27632;SDS011;15046;50.930;13.334;2023-02-15T01:03:18;27.80;;;11.88;;
27632;SDS011;15046;50.930;13.334;2023-02-15T01:05:45;28.55;;;12.43;;
27632;SDS011;15046;50.930;13.334;2023-02-15T01:08:13;23.55;;;12.20;;
27632;SDS011;15046;50.930;13.334;2023-02-15T01:10:38;23.73;;;11.07;;
27632;SDS011;15046;50.930;13.334;2023-02-15T01:13:05;22.13;;;10.40;;
27632;SDS011;15046;50.930;13.334;2023-02-15T01:15:31;23.13;;;11.55;;
27632;SDS011;15046;50.930;13.334;2023-02-15T01:18:00;23.02;;;11.38;;
27632;SDS011;15046;50.930;13.334;2023-02-15T01:20:27;22.20;;;10.60;;
27632;SDS011;15046;50.930;13.334;2023-02-15T01:22:53;23.08;;;11.30;;
27632;SDS011;15046;50.930;13.334;2023-02-15T01:25:22;20.60;;;10.30;;
27632;SDS011;15046;50.930;13.334;2023-02-15T01:27:49;22.27;;;10.18;;
27632;SDS011;15046;50.930;13.334;2023-02-15T01:30:15;22.02;;;9.82;;
27632;SDS011;15046;50.930;13.334;2023-02-15T01:32:42;22.08;;;10.48;;
27632;SDS011;15046;50.930;13.334;2023-02-15T01:35:08;23.85;;;10.77;;
27632;SDS011;15046;50.930;13.334;2023-02-15T01:37:35;22.77;;;10.57;;
27632;SDS011;15046;50.930;13.334;2023-02-15T01:40:04;20.80;;;10.02;;
27632;SDS011;15046;50.930;13.334;2023-02-15T01:42:33;18.42;;;8.93;;
27632;SDS011;15046;50.930;13.334;2023-02-15T01:45:00;19.08;;;9.57;;
27632;SDS011;15046;50.930;13.334;2023-02-15T01:50:09;21.23;;;9.38;;
27632;SDS011;15046;50.930;13.334;2023-02-15T01:52:44;19.77;;;9.43;;
27632;SDS011;15046;50.930;13.334;2023-02-15T01:55:17;19.55;;;8.93;;
27632;SDS011;15046;50.930;13.334;2023-02-15T01:57:44;18.23;;;10.13;;
27632;SDS011;15046;50.930;13.334;2023-02-15T02:00:12;21.75;;;10.02;;
27632;SDS011;15046;50.930;13.334;2023-02-15T02:02:42;18.67;;;9.75;;
27632;SDS011;15046;50.930;13.334;2023-02-15T02:05:10;21.47;;;10.20;;
27632;SDS011;15046;50.930;13.334;2023-02-15T02:07:38;18.30;;;9.27;;
27632;SDS011;15046;50.930;13.334;2023-02-15T02:10:08;21.60;;;10.43;;
27632;SDS011;15046;50.930;13.334;2023-02-15T02:12:37;23.90;;;10.00;;
27632;SDS011;15046;50.930;13.334;2023-02-15T02:15:05;19.15;;;8.88;;
27632;SDS011;15046;50.930;13.334;2023-02-15T02:29:51;18.75;;;8.98;;
27632;SDS011;15046;50.930;13.334;2023-02-15T02:40:48;20.70;;;8.68;;
27632;SDS011;15046;50.930;13.334;2023-02-15T02:43:28;20.05;;;9.63;;
27632;SDS011;15046;50.930;13.334;2023-02-15T02:49:00;18.10;;;8.48;;
27632;SDS011;15046;50.930;13.334;2023-02-15T02:51:27;20.45;;;8.90;;
27632;SDS011;15046;50.930;13.334;2023-02-15T02:53:56;21.40;;;8.80;;
27632;SDS011;15046;50.930;13.334;2023-02-15T02:59:00;21.17;;;8.10;;
27632;SDS011;15046;50.930;13.334;2023-02-15T03:01:29;18.88;;;8.30;;
27632;SDS011;15046;50.930;13.334;2023-02-15T03:04:15;16.63;;;7.50;;
27632;SDS011;15046;50.930;13.334;2023-02-15T03:06:48;13.52;;;7.32;;
27632;SDS011;15046;50.930;13.334;2023-02-15T03:09:27;18.85;;;7.47;;
27632;SDS011;15046;50.930;13.334;2023-02-15T03:12:06;22.73;;;7.57;;
27632;SDS011;15046;50.930;13.334;2023-02-15T03:15:06;15.88;;;7.10;;
27632;SDS011;15046;50.930;13.334;2023-02-15T03:17:50;15.18;;;6.22;;
27632;SDS011;15046;50.930;13.334;2023-02-15T03:20:27;14.82;;;6.28;;
27632;SDS011;15046;50.930;13.334;2023-02-15T03:22:59;14.48;;;6.30;;
27632;SDS011;15046;50.930;13.334;2023-02-15T03:25:32;13.27;;;6.63;;
27632;SDS011;15046;50.930;13.334;2023-02-15T03:28:03;15.23;;;6.25;;
27632;SDS011;15046;50.930;13.334;2023-02-15T03:30:38;14.20;;;6.05;;
27632;SDS011;15046;50.930;13.334;2023-02-15T03:33:07;13.25;;;6.18;;
27632;SDS011;15046;50.930;13.334;2023-02-15T03:35:45;12.98;;;6.25;;
27632;SDS011;15046;50.930;13.334;2023-02-15T03:38:20;13.02;;;6.47;;
27632;SDS011;15046;50.930;13.334;2023-02-15T03:40:50;13.52;;;5.57;;
27632;SDS011;15046;50.930;13.334;2023-02-15T03:43:53;12.77;;;6.47;;
27632;SDS011;15046;50.930;13.334;2023-02-15T03:49:07;12.02;;;5.35;;
27632;SDS011;15046;50.930;13.334;2023-02-15T03:51:37;14.48;;;5.95;;
27632;SDS011;15046;50.930;13.334;2023-02-15T03:57:04;13.10;;;5.85;;
27632;SDS011;15046;50.930;13.334;2023-02-15T03:59:50;12.60;;;5.80;;
27632;SDS011;15046;50.930;13.334;2023-02-15T04:02:40;11.13;;;5.35;;
27632;SDS011;15046;50.930;13.334;2023-02-15T04:05:15;11.30;;;5.30;;
27632;SDS011;15046;50.930;13.334;2023-02-15T04:07:41;12.93;;;5.05;;
27632;SDS011;15046;50.930;13.334;2023-02-15T04:10:07;13.38;;;5.10;;
27632;SDS011;15046;50.930;13.334;2023-02-15T04:12:51;14.02;;;5.15;;
27632;SDS011;15046;50.930;13.334;2023-02-15T04:15:17;13.07;;;5.60;;
27632;SDS011;15046;50.930;13.334;2023-02-15T04:18:05;13.10;;;5.45;;
27632;SDS011;15046;50.930;13.334;2023-02-15T04:20:31;12.38;;;5.28;;
27632;SDS011;15046;50.930;13.334;2023-02-15T04:23:15;9.05;;;4.75;;
27632;SDS011;15046;50.930;13.334;2023-02-15T04:26:02;9.65;;;4.43;;
27632;SDS011;15046;50.930;13.334;2023-02-15T04:28:29;11.13;;;4.95;;
27632;SDS011;15046;50.930;13.334;2023-02-15T04:30:55;11.00;;;5.10;;
27632;SDS011;15046;50.930;13.334;2023-02-15T04:33:21;12.43;;;4.40;;
27632;SDS011;15046;50.930;13.334;2023-02-15T04:35:47;9.75;;;4.80;;
27632;SDS011;15046;50.930;13.334;2023-02-15T04:38:13;9.25;;;4.43;;
27632;SDS011;15046;50.930;13.334;2023-02-15T04:40:39;13.05;;;5.55;;
27632;SDS011;15046;50.930;13.334;2023-02-15T04:43:06;12.25;;;4.82;;
27632;SDS011;15046;50.930;13.334;2023-02-15T04:45:31;11.75;;;5.13;;
27632;SDS011;15046;50.930;13.334;2023-02-15T04:47:57;12.48;;;4.53;;
27632;SDS011;15046;50.930;13.334;2023-02-15T04:50:23;10.57;;;5.03;;
27632;SDS011;15046;50.930;13.334;2023-02-15T04:52:49;10.43;;;4.53;;
27632;SDS011;15046;50.930;13.334;2023-02-15T04:55:14;12.68;;;5.32;;
27632;SDS011;15046;50.930;13.334;2023-02-15T04:57:40;13.60;;;5.15;;
27632;SDS011;15046;50.930;13.334;2023-02-15T05:00:06;11.13;;;4.85;;
27632;SDS011;15046;50.930;13.334;2023-02-15T05:02:33;13.82;;;5.28;;
27632;SDS011;15046;50.930;13.334;2023-02-15T05:04:59;13.75;;;6.00;;
27632;SDS011;15046;50.930;13.334;2023-02-15T05:07:25;14.40;;;6.18;;
27632;SDS011;15046;50.930;13.334;2023-02-15T05:09:51;13.75;;;6.07;;
27632;SDS011;15046;50.930;13.334;2023-02-15T05:12:17;14.48;;;5.85;;
27632;SDS011;15046;50.930;13.334;2023-02-15T05:14:42;15.18;;;5.70;;
27632;SDS011;15046;50.930;13.334;2023-02-15T05:17:08;14.38;;;6.28;;
27632;SDS011;15046;50.930;13.334;2023-02-15T05:19:34;13.63;;;6.18;;
27632;SDS011;15046;50.930;13.334;2023-02-15T05:22:00;12.70;;;5.88;;
27632;SDS011;15046;50.930;13.334;2023-02-15T05:24:25;14.30;;;5.95;;
27632;SDS011;15046;50.930;13.334;2023-02-15T05:27:13;14.55;;;6.78;;
27632;SDS011;15046;50.930;13.334;2023-02-15T05:29:57;13.25;;;5.97;;
27632;SDS011;15046;50.930;13.334;2023-02-15T05:32:23;13.90;;;6.35;;
27632;SDS011;15046;50.930;13.334;2023-02-15T05:34:49;11.43;;;5.72;;
27632;SDS011;15046;50.930;13.334;2023-02-15T05:37:14;14.52;;;6.47;;
27632;SDS011;15046;50.930;13.334;2023-02-15T05:39:40;13.98;;;5.97;;
27632;SDS011;15046;50.930;13.334;2023-02-15T05:42:06;12.20;;;5.15;;
27632;SDS011;15046;50.930;13.334;2023-02-15T05:44:32;14.23;;;5.55;;
27632;SDS011;15046;50.930;13.334;2023-02-15T05:46:58;14.65;;;6.53;;
27632;SDS011;15046;50.930;13.334;2023-02-15T05:49:23;14.73;;;6.68;;
27632;SDS011;15046;50.930;13.334;2023-02-15T05:51:49;17.98;;;6.38;;
27632;SDS011;15046;50.930;13.334;2023-02-15T05:54:15;11.23;;;5.28;;
27632;SDS011;15046;50.930;13.334;2023-02-15T05:56:41;12.57;;;5.80;;
27632;SDS011;15046;50.930;13.334;2023-02-15T05:59:08;17.88;;;6.05;;
27632;SDS011;15046;50.930;13.334;2023-02-15T06:01:35;11.27;;;6.07;;
27632;SDS011;15046;50.930;13.334;2023-02-15T06:04:01;14.65;;;6.53;;
27632;SDS011;15046;50.930;13.334;2023-02-15T06:06:26;16.17;;;6.40;;
27632;SDS011;15046;50.930;13.334;2023-02-15T06:08:52;13.20;;;5.50;;
27632;SDS011;15046;50.930;13.334;2023-02-15T06:11:18;11.77;;;5.75;;
27632;SDS011;15046;50.930;13.334;2023-02-15T06:13:44;11.40;;;5.85;;
27632;SDS011;15046;50.930;13.334;2023-02-15T06:16:09;12.52;;;5.43;;
27632;SDS011;15046;50.930;13.334;2023-02-15T06:18:35;13.95;;;5.85;;
27632;SDS011;15046;50.930;13.334;2023-02-15T06:21:01;13.55;;;5.63;;
27632;SDS011;15046;50.930;13.334;2023-02-15T06:23:28;15.07;;;6.55;;
27632;SDS011;15046;50.930;13.334;2023-02-15T06:25:55;11.68;;;5.55;;
27632;SDS011;15046;50.930;13.334;2023-02-15T06:28:21;18.48;;;7.10;;
27632;SDS011;15046;50.930;13.334;2023-02-15T06:30:47;15.77;;;6.00;;
27632;SDS011;15046;50.930;13.334;2023-02-15T06:33:12;10.93;;;5.57;;
27632;SDS011;15046;50.930;13.334;2023-02-15T06:35:38;14.93;;;6.72;;
27632;SDS011;15046;50.930;13.334;2023-02-15T06:38:04;12.52;;;6.80;;
27632;SDS011;15046;50.930;13.334;2023-02-15T06:40:30;16.65;;;6.40;;
27632;SDS011;15046;50.930;13.334;2023-02-15T06:42:55;11.93;;;5.07;;
27632;SDS011;15046;50.930;13.334;2023-02-15T06:45:21;13.35;;;5.45;;
27632;SDS011;15046;50.930;13.334;2023-02-15T06:47:47;14.90;;;6.18;;
27632;SDS011;15046;50.930;13.334;2023-02-15T06:50:14;12.75;;;5.93;;
27632;SDS011;15046;50.930;13.334;2023-02-15T06:52:40;12.50;;;5.40;;
27632;SDS011;15046;50.930;13.334;2023-02-15T06:55:06;12.23;;;4.68;;
27632;SDS011;15046;50.930;13.334;2023-02-15T06:57:32;10.82;;;5.15;;
27632;SDS011;15046;50.930;13.334;2023-02-15T06:59:58;11.80;;;5.20;;
27632;SDS011;15046;50.930;13.334;2023-02-15T07:02:24;14.45;;;5.78;;
27632;SDS011;15046;50.930;13.334;2023-02-15T07:04:50;12.13;;;5.20;;
27632;SDS011;15046;50.930;13.334;2023-02-15T07:07:16;11.52;;;5.65;;
27632;SDS011;15046;50.930;13.334;2023-02-15T07:09:41;13.23;;;5.40;;
27632;SDS011;15046;50.930;13.334;2023-02-15T07:12:09;13.07;;;6.18;;
27632;SDS011;15046;50.930;13.334;2023-02-15T07:14:54;18.48;;;5.85;;
27632;SDS011;15046;50.930;13.334;2023-02-15T07:17:19;10.73;;;5.20;;
27632;SDS011;15046;50.930;13.334;2023-02-15T07:19:45;13.25;;;5.93;;
27632;SDS011;15046;50.930;13.334;2023-02-15T07:22:11;11.40;;;5.05;;
27632;SDS011;15046;50.930;13.334;2023-02-15T07:24:37;14.40;;;6.40;;
27632;SDS011;15046;50.930;13.334;2023-02-15T07:27:03;11.98;;;5.40;;
27632;SDS011;15046;50.930;13.334;2023-02-15T07:29:28;12.13;;;5.32;;
27632;SDS011;15046;50.930;13.334;2023-02-15T07:31:54;14.60;;;6.05;;
27632;SDS011;15046;50.930;13.334;2023-02-15T07:34:21;18.65;;;6.28;;
27632;SDS011;15046;50.930;13.334;2023-02-15T07:36:50;14.38;;;5.30;;
27632;SDS011;15046;50.930;13.334;2023-02-15T07:39:16;12.50;;;5.78;;
27632;SDS011;15046;50.930;13.334;2023-02-15T07:41:42;14.23;;;5.65;;
27632;SDS011;15046;50.930;13.334;2023-02-15T07:44:10;15.02;;;5.32;;
27632;SDS011;15046;50.930;13.334;2023-02-15T07:46:40;12.52;;;6.28;;
27632;SDS011;15046;50.930;13.334;2023-02-15T07:49:06;12.10;;;5.30;;
27632;SDS011;15046;50.930;13.334;2023-02-15T07:51:33;11.77;;;5.32;;
27632;SDS011;15046;50.930;13.334;2023-02-15T07:53:58;10.75;;;5.35;;
27632;SDS011;15046;50.930;13.334;2023-02-15T07:56:24;11.85;;;5.25;;
27632;SDS011;15046;50.930;13.334;2023-02-15T07:58:50;13.40;;;5.45;;
27632;SDS011;15046;50.930;13.334;2023-02-15T08:01:17;12.68;;;5.25;;
27632;SDS011;15046;50.930;13.334;2023-02-15T08:03:49;12.75;;;5.30;;
27632;SDS011;15046;50.930;13.334;2023-02-15T08:06:15;10.70;;;5.50;;
27632;SDS011;15046;50.930;13.334;2023-02-15T08:08:43;12.35;;;5.18;;
27632;SDS011;15046;50.930;13.334;2023-02-15T08:13:57;12.43;;;4.90;;
27632;SDS011;15046;50.930;13.334;2023-02-15T08:21:38;11.07;;;5.30;;
27632;SDS011;15046;50.930;13.334;2023-02-15T08:24:05;12.63;;;5.63;;
27632;SDS011;15046;50.930;13.334;2023-02-15T08:26:32;11.90;;;5.07;;
27632;SDS011;15046;50.930;13.334;2023-02-15T08:28:59;12.25;;;4.85;;
27632;SDS011;15046;50.930;13.334;2023-02-15T08:31:25;9.25;;;4.57;;
27632;SDS011;15046;50.930;13.334;2023-02-15T08:33:53;12.35;;;4.93;;
27632;SDS011;15046;50.930;13.334;2023-02-15T08:36:20;12.55;;;4.93;;
27632;SDS011;15046;50.930;13.334;2023-02-15T08:38:49;11.52;;;5.10;;
27632;SDS011;15046;50.930;13.334;2023-02-15T08:41:16;7.43;;;3.95;;
27632;SDS011;15046;50.930;13.334;2023-02-15T08:43:44;10.63;;;4.20;;
27632;SDS011;15046;50.930;13.334;2023-02-15T08:46:12;9.98;;;4.05;;
27632;SDS011;15046;50.930;13.334;2023-02-15T08:48:39;9.65;;;5.07;;
27632;SDS011;15046;50.930;13.334;2023-02-15T08:51:06;11.00;;;4.40;;
27632;SDS011;15046;50.930;13.334;2023-02-15T08:53:40;8.90;;;4.90;;
27632;SDS011;15046;50.930;13.334;2023-02-15T08:56:08;10.18;;;5.03;;
27632;SDS011;15046;50.930;13.334;2023-02-15T08:58:34;12.35;;;5.20;;
27632;SDS011;15046;50.930;13.334;2023-02-15T09:01:00;14.40;;;5.95;;
27632;SDS011;15046;50.930;13.334;2023-02-15T09:03:30;11.18;;;5.30;;
27632;SDS011;15046;50.930;13.334;2023-02-15T09:05:57;9.57;;;4.95;;
27632;SDS011;15046;50.930;13.334;2023-02-15T09:08:24;11.35;;;5.13;;
27632;SDS011;15046;50.930;13.334;2023-02-15T09:10:50;10.43;;;5.90;;
27632;SDS011;15046;50.930;13.334;2023-02-15T09:13:17;10.13;;;5.45;;
27632;SDS011;15046;50.930;13.334;2023-02-15T09:15:43;8.80;;;4.78;;
27632;SDS011;15046;50.930;13.334;2023-02-15T09:18:09;12.63;;;5.40;;
27632;SDS011;15046;50.930;13.334;2023-02-15T09:20:36;12.23;;;5.75;;
27632;SDS011;15046;50.930;13.334;2023-02-15T09:23:02;12.30;;;5.22;;
27632;SDS011;15046;50.930;13.334;2023-02-15T09:25:28;9.88;;;5.63;;
27632;SDS011;15046;50.930;13.334;2023-02-15T09:27:54;10.02;;;5.25;;
27632;SDS011;15046;50.930;13.334;2023-02-15T09:30:20;11.55;;;5.60;;
27632;SDS011;15046;50.930;13.334;2023-02-15T09:32:46;12.15;;;5.00;;
27632;SDS011;15046;50.930;13.334;2023-02-15T09:35:12;11.57;;;5.50;;
27632;SDS011;15046;50.930;13.334;2023-02-15T09:37:38;11.43;;;5.03;;
27632;SDS011;15046;50.930;13.334;2023-02-15T09:40:04;8.82;;;4.40;;
27632;SDS011;15046;50.930;13.334;2023-02-15T09:48:03;8.45;;;3.75;;
27632;SDS011;15046;50.930;13.334;2023-02-15T09:53:53;8.90;;;3.70;;
27632;SDS011;15046;50.930;13.334;2023-02-15T09:56:39;10.90;;;3.05;;
27632;SDS011;15046;50.930;13.334;2023-02-15T10:02:20;11.15;;;3.63;;
27632;SDS011;15046;50.930;13.334;2023-02-15T10:05:09;9.98;;;3.25;;
27632;SDS011;15046;50.930;13.334;2023-02-15T10:13:31;8.52;;;2.95;;
27632;SDS011;15046;50.930;13.334;2023-02-15T10:16:26;9.85;;;3.10;;
27632;SDS011;15046;50.930;13.334;2023-02-15T10:19:09;6.57;;;2.67;;
27632;SDS011;15046;50.930;13.334;2023-02-15T10:22:29;5.70;;;2.72;;
27632;SDS011;15046;50.930;13.334;2023-02-15T10:27:19;7.57;;;2.53;;
27632;SDS011;15046;50.930;13.334;2023-02-15T10:30:08;7.90;;;2.97;;
27632;SDS011;15046;50.930;13.334;2023-02-15T10:32:42;6.60;;;3.25;;
27632;SDS011;15046;50.930;13.334;2023-02-15T10:46:45;6.80;;;2.90;;
27632;SDS011;15046;50.930;13.334;2023-02-15T10:57:54;7.47;;;3.15;;
27632;SDS011;15046;50.930;13.334;2023-02-15T11:01:01;9.00;;;3.92;;
27632;SDS011;15046;50.930;13.334;2023-02-15T11:06:27;7.80;;;3.60;;
27632;SDS011;15046;50.930;13.334;2023-02-15T11:08:54;8.57;;;3.88;;
27632;SDS011;15046;50.930;13.334;2023-02-15T11:11:35;6.75;;;3.85;;
27632;SDS011;15046;50.930;13.334;2023-02-15T11:14:15;17.13;;;3.60;;
27632;SDS011;15046;50.930;13.334;2023-02-15T11:17:02;10.60;;;4.07;;
27632;SDS011;15046;50.930;13.334;2023-02-15T11:19:38;7.88;;;3.00;;
27632;SDS011;15046;50.930;13.334;2023-02-15T11:24:41;3.65;;;1.10;;
27632;SDS011;15046;50.930;13.334;2023-02-15T11:40:36;1.42;;;0.73;;
27632;SDS011;15046;50.930;13.334;2023-02-15T11:43:29;2.92;;;0.98;;
27632;SDS011;15046;50.930;13.334;2023-02-15T11:46:07;2.13;;;0.68;;
27632;SDS011;15046;50.930;13.334;2023-02-15T11:48:35;1.20;;;0.68;;
27632;SDS011;15046;50.930;13.334;2023-02-15T11:51:02;2.95;;;0.90;;
27632;SDS011;15046;50.930;13.334;2023-02-15T11:53:30;4.82;;;1.42;;
27632;SDS011;15046;50.930;13.334;2023-02-15T11:55:58;2.88;;;1.40;;
27632;SDS011;15046;50.930;13.334;2023-02-15T12:01:24;3.33;;;1.20;;
27632;SDS011;15046;50.930;13.334;2023-02-15T12:06:54;2.42;;;1.30;;
27632;SDS011;15046;50.930;13.334;2023-02-15T12:14:55;2.70;;;1.13;;
27632;SDS011;15046;50.930;13.334;2023-02-15T12:17:32;2.60;;;1.10;;
27632;SDS011;15046;50.930;13.334;2023-02-15T12:20:04;3.67;;;1.70;;
27632;SDS011;15046;50.930;13.334;2023-02-15T12:22:49;2.05;;;0.90;;
27632;SDS011;15046;50.930;13.334;2023-02-15T12:30:57;3.10;;;1.63;;
27632;SDS011;15046;50.930;13.334;2023-02-15T12:33:33;2.15;;;1.10;;
27632;SDS011;15046;50.930;13.334;2023-02-15T12:39:05;2.67;;;1.30;;
27632;SDS011;15046;50.930;13.334;2023-02-15T12:41:37;2.85;;;1.27;;
27632;SDS011;15046;50.930;13.334;2023-02-15T12:44:19;3.13;;;1.60;;
27632;SDS011;15046;50.930;13.334;2023-02-15T12:46:55;2.45;;;1.45;;
27632;SDS011;15046;50.930;13.334;2023-02-15T12:49:23;3.10;;;1.40;;
27632;SDS011;15046;50.930;13.334;2023-02-15T12:51:53;6.40;;;1.88;;
27632;SDS011;15046;50.930;13.334;2023-02-15T12:54:31;4.85;;;1.98;;
27632;SDS011;15046;50.930;13.334;2023-02-15T12:57:01;3.80;;;1.67;;
27632;SDS011;15046;50.930;13.334;2023-02-15T13:00:00;4.20;;;2.20;;
27632;SDS011;15046;50.930;13.334;2023-02-15T13:08:01;3.95;;;1.88;;
27632;SDS011;15046;50.930;13.334;2023-02-15T13:10:41;4.25;;;1.90;;
27632;SDS011;15046;50.930;13.334;2023-02-15T13:13:19;4.50;;;1.70;;
27632;SDS011;15046;50.930;13.334;2023-02-15T13:15:50;3.83;;;1.75;;
27632;SDS011;15046;50.930;13.334;2023-02-15T13:21:14;4.40;;;2.20;;
27632;SDS011;15046;50.930;13.334;2023-02-15T13:23:42;3.05;;;1.42;;
27632;SDS011;15046;50.930;13.334;2023-02-15T13:26:18;4.75;;;1.80;;
27632;SDS011;15046;50.930;13.334;2023-02-15T13:28:46;5.60;;;1.70;;
27632;SDS011;15046;50.930;13.334;2023-02-15T13:31:19;4.32;;;1.92;;
27632;SDS011;15046;50.930;13.334;2023-02-15T13:33:53;4.78;;;2.10;;
27632;SDS011;15046;50.930;13.334;2023-02-15T13:39:27;5.25;;;1.67;;
27632;SDS011;15046;50.930;13.334;2023-02-15T13:47:37;5.00;;;2.40;;
27632;SDS011;15046;50.930;13.334;2023-02-15T13:56:06;6.90;;;3.00;;
27632;SDS011;15046;50.930;13.334;2023-02-15T14:01:53;4.97;;;3.15;;
27632;SDS011;15046;50.930;13.334;2023-02-15T14:07:48;7.32;;;4.00;;
27632;SDS011;15046;50.930;13.334;2023-02-15T14:13:26;6.80;;;3.72;;
27632;SDS011;15046;50.930;13.334;2023-02-15T14:19:04;6.47;;;2.95;;
27632;SDS011;15046;50.930;13.334;2023-02-15T14:21:47;5.35;;;2.90;;
27632;SDS011;15046;50.930;13.334;2023-02-15T14:32:04;5.32;;;2.40;;
27632;SDS011;15046;50.930;13.334;2023-02-15T14:37:13;4.70;;;2.50;;
27632;SDS011;15046;50.930;13.334;2023-02-15T14:39:47;4.63;;;2.58;;
27632;SDS011;15046;50.930;13.334;2023-02-15T14:49:03;5.47;;;2.33;;
27632;SDS011;15046;50.930;13.334;2023-02-15T14:56:42;4.22;;;2.15;;
27632;SDS011;15046;50.930;13.334;2023-02-15T15:04:37;3.05;;;1.80;;
27632;SDS011;15046;50.930;13.334;2023-02-15T15:09:48;3.38;;;1.88;;
27632;SDS011;15046;50.930;13.334;2023-02-15T15:12:58;3.58;;;1.67;;
27632;SDS011;15046;50.930;13.334;2023-02-15T15:15:56;4.43;;;1.70;;
27632;SDS011;15046;50.930;13.334;2023-02-15T15:18:43;4.82;;;1.85;;
27632;SDS011;15046;50.930;13.334;2023-02-15T15:21:56;4.22;;;1.83;;
27632;SDS011;15046;50.930;13.334;2023-02-15T15:47:21;6.45;;;2.88;;
27632;SDS011;15046;50.930;13.334;2023-02-15T15:49:57;7.25;;;3.38;;
27632;SDS011;15046;50.930;13.334;2023-02-15T15:52:24;8.40;;;3.10;;
27632;SDS011;15046;50.930;13.334;2023-02-15T15:54:52;4.72;;;1.92;;
27632;SDS011;15046;50.930;13.334;2023-02-15T15:59:53;8.30;;;2.40;;
27632;SDS011;15046;50.930;13.334;2023-02-15T16:02:20;7.85;;;2.58;;
27632;SDS011;15046;50.930;13.334;2023-02-15T16:04:46;6.85;;;2.25;;
27632;SDS011;15046;50.930;13.334;2023-02-15T16:09:56;7.47;;;2.30;;
27632;SDS011;15046;50.930;13.334;2023-02-15T16:12:24;6.20;;;2.65;;
27632;SDS011;15046;50.930;13.334;2023-02-15T16:14:53;5.20;;;2.42;;
27632;SDS011;15046;50.930;13.334;2023-02-15T16:17:24;4.10;;;2.00;;
27632;SDS011;15046;50.930;13.334;2023-02-15T16:20:01;4.53;;;1.80;;
27632;SDS011;15046;50.930;13.334;2023-02-15T16:22:47;3.95;;;2.00;;
27632;SDS011;15046;50.930;13.334;2023-02-15T16:28:16;5.47;;;2.08;;
27632;SDS011;15046;50.930;13.334;2023-02-15T16:30:44;4.18;;;1.95;;
27632;SDS011;15046;50.930;13.334;2023-02-15T16:33:13;5.72;;;2.22;;
27632;SDS011;15046;50.930;13.334;2023-02-15T16:35:52;6.95;;;1.92;;
27632;SDS011;15046;50.930;13.334;2023-02-15T16:41:13;5.28;;;2.10;;
27632;SDS011;15046;50.930;13.334;2023-02-15T16:43:42;8.55;;;2.38;;
27632;SDS011;15046;50.930;13.334;2023-02-15T16:46:12;6.55;;;1.85;;
27632;SDS011;15046;50.930;13.334;2023-02-15T16:48:44;6.30;;;1.90;;
27632;SDS011;15046;50.930;13.334;2023-02-15T16:51:23;4.82;;;1.73;;
27632;SDS011;15046;50.930;13.334;2023-02-15T16:53:52;5.05;;;2.10;;
27632;SDS011;15046;50.930;13.334;2023-02-15T16:56:24;6.07;;;2.20;;
27632;SDS011;15046;50.930;13.334;2023-02-15T16:58:54;7.50;;;2.08;;
27632;SDS011;15046;50.930;13.334;2023-02-15T17:01:24;7.45;;;2.10;;
27632;SDS011;15046;50.930;13.334;2023-02-15T17:04:12;9.10;;;2.55;;
27632;SDS011;15046;50.930;13.334;2023-02-15T17:07:20;15.38;;;4.10;;
27632;SDS011;15046;50.930;13.334;2023-02-15T17:09:53;15.40;;;3.58;;
27632;SDS011;15046;50.930;13.334;2023-02-15T17:15:30;9.63;;;4.78;;
27632;SDS011;15046;50.930;13.334;2023-02-15T17:17:58;17.90;;;5.72;;
27632;SDS011;15046;50.930;13.334;2023-02-15T17:20:46;8.93;;;3.45;;
27632;SDS011;15046;50.930;13.334;2023-02-15T17:23:30;10.05;;;3.00;;
27632;SDS011;15046;50.930;13.334;2023-02-15T17:25:58;8.85;;;3.42;;
27632;SDS011;15046;50.930;13.334;2023-02-15T17:28:28;10.07;;;3.60;;
27632;SDS011;15046;50.930;13.334;2023-02-15T17:30:55;12.63;;;4.07;;
27632;SDS011;15046;50.930;13.334;2023-02-15T17:33:25;9.55;;;3.95;;
27632;SDS011;15046;50.930;13.334;2023-02-15T17:38:40;12.33;;;4.93;;
27632;SDS011;15046;50.930;13.334;2023-02-15T17:41:28;15.52;;;8.13;;
27632;SDS011;15046;50.930;13.334;2023-02-15T17:44:03;15.82;;;5.40;;
27632;SDS011;15046;50.930;13.334;2023-02-15T17:46:31;10.77;;;4.70;;
27632;SDS011;15046;50.930;13.334;2023-02-15T17:48:59;9.13;;;4.35;;
27632;SDS011;15046;50.930;13.334;2023-02-15T17:51:26;11.32;;;4.60;;
27632;SDS011;15046;50.930;13.334;2023-02-15T17:53:52;11.23;;;5.18;;
27632;SDS011;15046;50.930;13.334;2023-02-15T17:56:36;16.65;;;6.30;;
27632;SDS011;15046;50.930;13.334;2023-02-15T17:59:03;14.43;;;6.28;;
27632;SDS011;15046;50.930;13.334;2023-02-15T18:01:34;11.63;;;5.20;;
27632;SDS011;15046;50.930;13.334;2023-02-15T18:04:22;15.18;;;5.65;;
27632;SDS011;15046;50.930;13.334;2023-02-15T18:07:11;11.43;;;5.32;;
27632;SDS011;15046;50.930;13.334;2023-02-15T18:10:01;15.38;;;6.85;;
27632;SDS011;15046;50.930;13.334;2023-02-15T18:12:46;20.35;;;7.05;;
27632;SDS011;15046;50.930;13.334;2023-02-15T18:15:12;14.00;;;6.30;;
27632;SDS011;15046;50.930;13.334;2023-02-15T18:17:39;13.82;;;5.82;;
27632;SDS011;15046;50.930;13.334;2023-02-15T18:22:58;11.85;;;5.90;;
27632;SDS011;15046;50.930;13.334;2023-02-15T18:25:26;16.60;;;6.22;;
27632;SDS011;15046;50.930;13.334;2023-02-15T18:27:51;11.05;;;6.18;;
27632;SDS011;15046;50.930;13.334;2023-02-15T18:30:19;13.73;;;6.65;;
27632;SDS011;15046;50.930;13.334;2023-02-15T18:32:46;12.68;;;6.30;;
27632;SDS011;15046;50.930;13.334;2023-02-15T18:35:19;13.53;;;7.80;;
27632;SDS011;15046;50.930;13.334;2023-02-15T18:37:47;15.52;;;8.07;;